Impacts TAF Board
For situational awareness. Not to be used for flight planning purposes.
IDs:

KSLN - Salina Rgnl, KS, US

Issued at 1127 UTC 10 Aug 2022
Updated at 1409 UTC 10 Aug 2022
Potential Impact None Slight Moderate High
Time1353Z 10/15Z 10/16Z 10/17Z 10/18Z 10/19Z 10/20Z 10/21Z 10/22Z 10/23Z 11/00Z 11/01Z 11/02Z 11/03Z>>
Type OBS PRVL PRVL PRVL PRVL PRVL PRVL PRVL PRVL PRVL PRVL PRVL PRVL PRVL
VIS 10 >6 >6 >6 >6 >6 >6 >6 >6 >6 >6 >6 >6 >6
CIG -- -- -- -- -- -- -- -- -- -- -- -- -- --
Cover CLR SKC SKC SKC SKC SKC SKC SKC SKC SKC SKC SKC SKC SKC
FltCat VFR VFR VFR VFR VFR VFR VFR VFR VFR VFR VFR VFR VFR VFR
WX -- -- -- -- -- -- -- -- -- -- -- -- -- --
WDir VRB 110 110 110 110 70 70 70 70 70 70 70 90 90
WSpd 0 5 5 5 5 8 8 8 8 8 8 8 5 5
WGst -- -- -- -- -- -- -- -- -- -- -- -- -- --
WSHgt -- -- -- -- -- -- -- -- -- -- -- -- -- --
WSDir -- -- -- -- -- -- -- -- -- -- -- -- -- --
WSSpd -- -- -- -- -- -- -- -- -- -- -- -- -- --
Raw TAF
KSLN 101127Z 1012/1112 00000KT P6SM SKC
  FM101500 11005KT P6SM SKC
  FM101900 07008KT P6SM SKC
  FM110200 09005KT P6SM SKC
  FM110900 20004KT P6SM SKC


Raw METAR
KSLN 101353Z 00000KT 10SM CLR 22/17 A3021 RMK AO2 SLP216 T02220172
KSLN 101253Z 00000KT 10SM CLR 19/16 A3020 RMK AO2 SLP213 T01940156
KSLN 101153Z 00000KT 10SM CLR 16/14 A3017 RMK AO2 SLP205 T01610139 10222 20150 53011

METAR Board
Radar Display
Forecast Discussion
For situational awareness. Not to be used for flight planning purposes.